createdAt,value
2022-12-23T00:00:27.445Z,1008.23
2022-12-23T00:00:49.911Z,1008.13
2022-12-23T00:01:12.853Z,1008.13
2022-12-23T00:01:48.195Z,1008.13
2022-12-23T00:02:20.515Z,1008.33
2022-12-23T00:02:51.739Z,1008.33
2022-12-23T00:03:23.559Z,1008.33
2022-12-23T00:03:55.664Z,1008.33
2022-12-23T00:04:28.368Z,1008.13
2022-12-23T00:04:50.716Z,1008.13
2022-12-23T00:05:13.455Z,1008.13
2022-12-23T00:05:47.392Z,1008.13
2022-12-23T00:06:19.236Z,1008.23
2022-12-23T00:06:51.519Z,1008.23
2022-12-23T00:07:24.331Z,1008.23
2022-12-23T00:07:56.350Z,1008.23
2022-12-23T00:08:27.485Z,1008.33
2022-12-23T00:08:50.420Z,1008.13
2022-12-23T00:09:12.518Z,1008.13
2022-12-23T00:09:48.998Z,1008.23
2022-12-23T00:10:19.978Z,1008.23
2022-12-23T00:10:51.793Z,1008.23
2022-12-23T00:11:22.995Z,1008.13
2022-12-23T00:11:55.430Z,1008.13
2022-12-23T00:12:27.422Z,1008.23
2022-12-23T00:12:50.090Z,1008.33
2022-12-23T00:13:12.799Z,1008.33
2022-12-23T00:13:47.526Z,1008.33
2022-12-23T00:14:21.902Z,1008.33
2022-12-23T00:14:51.908Z,1008.33
2022-12-23T00:15:23.339Z,1008.23
2022-12-23T00:15:55.788Z,1008.23
2022-12-23T00:16:27.354Z,1008.13
2022-12-23T00:16:50.319Z,1008.33
2022-12-23T00:17:22.153Z,1008.33
2022-12-23T00:17:47.628Z,1008.33
2022-12-23T00:18:20.553Z,1008.13
2022-12-23T00:18:51.548Z,1008.13
2022-12-23T00:19:23.013Z,1008.33
2022-12-23T00:19:55.701Z,1008.33
2022-12-23T00:20:27.979Z,1008.33
2022-12-23T00:20:51.049Z,1008.13
2022-12-23T00:21:13.596Z,1008.13
2022-12-23T00:21:48.007Z,1008.13
2022-12-23T00:22:19.414Z,1008.13
2022-12-23T00:22:52.185Z,1008.13
2022-12-23T00:23:25.268Z,1008.33
2022-12-23T00:23:55.571Z,1008.33
2022-12-23T00:24:28.345Z,1008.33
2022-12-23T00:24:50.812Z,1008.02
2022-12-23T00:25:13.414Z,1008.02
2022-12-23T00:25:48.699Z,1008.02
2022-12-23T00:26:19.618Z,1008.23
2022-12-23T00:26:51.488Z,1008.23
2022-12-23T00:27:23.079Z,1008.02
2022-12-23T00:27:55.625Z,1008.02
2022-12-23T00:28:27.784Z,1008.13
2022-12-23T00:28:50.603Z,1008.02
2022-12-23T00:29:12.977Z,1008.02
2022-12-23T00:29:48.983Z,1008.13
2022-12-23T00:30:21.414Z,1008.13
2022-12-23T00:30:51.447Z,1008.13
2022-12-23T00:31:23.266Z,1008.23
2022-12-23T00:31:55.463Z,1008.23
2022-12-23T00:32:28.776Z,1008.13
2022-12-23T00:32:50.080Z,1008.13
2022-12-23T00:33:13.143Z,1008.13
2022-12-23T00:33:47.837Z,1008.13
2022-12-23T00:34:19.737Z,1008.23
2022-12-23T00:34:51.250Z,1008.23
2022-12-23T00:35:22.875Z,1008.33
2022-12-23T00:35:56.364Z,1008.33
2022-12-23T00:36:28.141Z,1008.13
2022-12-23T00:36:50.593Z,1008.13
2022-12-23T00:37:13.057Z,1008.13
2022-12-23T00:37:47.558Z,1008.13
2022-12-23T00:38:19.340Z,1008.13
2022-12-23T00:38:51.388Z,1008.13
2022-12-23T00:39:23.014Z,1008.02
2022-12-23T00:39:58.720Z,1008.02
2022-12-23T00:40:27.875Z,1008.02
2022-12-23T00:40:50.495Z,1008.23
2022-12-23T00:41:13.825Z,1008.23
2022-12-23T00:41:47.607Z,1008.23
2022-12-23T00:42:19.693Z,1008.13
2022-12-23T00:42:51.684Z,1008.13
2022-12-23T00:43:23.841Z,1008.33
2022-12-23T00:43:55.387Z,1008.33
2022-12-23T00:44:29.118Z,1008.23
2022-12-23T00:44:51.701Z,1008.23
2022-12-23T00:45:14.686Z,1008.23
2022-12-23T00:45:48.004Z,1008.23
2022-12-23T00:46:19.449Z,1008.23
2022-12-23T00:46:51.528Z,1008.23
2022-12-23T00:47:22.993Z,1008.13
2022-12-23T00:47:55.875Z,1008.13
2022-12-23T00:48:27.617Z,1008.33
2022-12-23T00:48:50.276Z,1008.23
2022-12-23T00:49:13.179Z,1008.23
2022-12-23T00:49:47.467Z,1008.23
2022-12-23T00:50:19.325Z,1008.13
2022-12-23T00:50:51.309Z,1008.13
2022-12-23T00:51:23.405Z,1008.33
2022-12-23T00:51:55.254Z,1008.33
2022-12-23T00:52:27.448Z,1008.02
2022-12-23T00:52:50.165Z,1008.13
2022-12-23T00:53:12.548Z,1008.13
2022-12-23T00:53:47.547Z,1008.13
2022-12-23T00:54:19.445Z,1008.13
2022-12-23T00:54:51.612Z,1008.13
2022-12-23T00:55:23.474Z,1008.33
2022-12-23T00:55:55.740Z,1008.33
2022-12-23T00:56:27.882Z,1008.23
2022-12-23T00:56:50.183Z,1008.43
2022-12-23T00:57:12.763Z,1008.43
2022-12-23T00:57:48.769Z,1008.43
2022-12-23T00:58:19.974Z,1008.33
2022-12-23T00:58:51.689Z,1008.33
2022-12-23T00:59:23.554Z,1008.23
2022-12-23T00:59:55.164Z,1008.23
2022-12-23T01:00:27.376Z,1008.43
2022-12-23T01:00:50.684Z,1008.33
2022-12-23T01:01:12.375Z,1008.33
2022-12-23T01:01:48.630Z,1008.33
2022-12-23T01:02:19.429Z,1008.43
2022-12-23T01:02:52.231Z,1008.43
2022-12-23T01:03:23.205Z,1008.23
2022-12-23T01:03:56.236Z,1008.23
2022-12-23T01:04:28.210Z,1008.43
2022-12-23T01:04:50.982Z,1008.33
2022-12-23T01:05:14.008Z,1008.33
2022-12-23T01:05:48.562Z,1008.23
2022-12-23T01:06:19.820Z,1008.23
2022-12-23T01:06:51.893Z,1008.23
2022-12-23T01:07:25.042Z,1008.23
2022-12-23T01:07:56.381Z,1008.23
2022-12-23T01:08:27.261Z,1008.23
2022-12-23T01:08:49.984Z,1008.33
2022-12-23T01:09:12.486Z,1008.33
2022-12-23T01:09:47.425Z,1008.33
2022-12-23T01:10:19.542Z,1008.33
2022-12-23T01:10:52.045Z,1008.33
2022-12-23T01:11:23.176Z,1008.63
2022-12-23T01:11:57.183Z,1008.63
2022-12-23T01:12:27.414Z,1008.43
2022-12-23T01:12:50.461Z,1008.43
2022-12-23T01:13:12.906Z,1008.43
2022-12-23T01:13:47.469Z,1008.43
2022-12-23T01:14:19.849Z,1008.43
2022-12-23T01:14:52.098Z,1008.43
2022-12-23T01:15:22.975Z,1008.43
2022-12-23T01:15:58.809Z,1008.43
2022-12-23T01:16:27.643Z,1008.33
2022-12-23T01:16:50.457Z,1008.33
2022-12-23T01:17:13.266Z,1008.33
2022-12-23T01:17:47.327Z,1008.33
2022-12-23T01:18:19.170Z,1008.13
2022-12-23T01:18:51.926Z,1008.13
2022-12-23T01:19:22.905Z,1008.33
2022-12-23T01:19:55.599Z,1008.33
2022-12-23T01:20:27.541Z,1008.33
2022-12-23T01:20:50.547Z,1008.33
2022-12-23T01:21:13.581Z,1008.33
2022-12-23T01:21:47.322Z,1008.33
2022-12-23T01:22:19.316Z,1008.53
2022-12-23T01:22:51.554Z,1008.53
2022-12-23T01:23:24.215Z,1008.53
2022-12-23T01:23:55.423Z,1008.53
2022-12-23T01:24:28.110Z,1008.33
2022-12-23T01:24:50.848Z,1008.23
2022-12-23T01:25:13.372Z,1008.23
2022-12-23T01:25:47.771Z,1008.23
2022-12-23T01:26:19.754Z,1008.43
2022-12-23T01:26:51.747Z,1008.43
2022-12-23T01:27:22.847Z,1008.53
2022-12-23T01:27:55.354Z,1008.53
2022-12-23T01:28:27.300Z,1008.33
2022-12-23T01:28:49.999Z,1008.33
2022-12-23T01:29:12.390Z,1008.33
2022-12-23T01:29:47.779Z,1008.33
2022-12-23T01:30:19.495Z,1008.43
2022-12-23T01:30:51.791Z,1008.43
2022-12-23T01:31:23.662Z,1008.33
2022-12-23T01:31:56.116Z,1008.33
2022-12-23T01:32:28.362Z,1008.63
2022-12-23T01:32:51.140Z,1008.33
2022-12-23T01:33:13.785Z,1008.33
2022-12-23T01:33:47.936Z,1008.33
2022-12-23T01:34:19.574Z,1008.43
2022-12-23T01:34:51.276Z,1008.43
2022-12-23T01:35:22.899Z,1008.53
2022-12-23T01:35:55.870Z,1008.53
2022-12-23T01:36:27.827Z,1008.43
2022-12-23T01:36:50.624Z,1008.43
2022-12-23T01:37:13.678Z,1008.43
2022-12-23T01:37:47.273Z,1008.43
2022-12-23T01:38:19.252Z,1008.43
2022-12-23T01:38:53.023Z,1008.43
2022-12-23T01:39:23.440Z,1008.63
2022-12-23T01:39:55.494Z,1008.63
2022-12-23T01:40:28.288Z,1008.53
2022-12-23T01:40:50.847Z,1008.53
2022-12-23T01:41:13.115Z,1008.53
2022-12-23T01:41:47.844Z,1008.53
2022-12-23T01:42:19.722Z,1008.43
2022-12-23T01:42:51.800Z,1008.43
2022-12-23T01:43:23.183Z,1008.53
2022-12-23T01:43:55.449Z,1008.53
2022-12-23T01:44:27.808Z,1008.43
2022-12-23T01:44:49.984Z,1008.43
2022-12-23T01:45:13.083Z,1008.43
2022-12-23T01:45:47.510Z,1008.43
2022-12-23T01:46:20.004Z,1008.63
2022-12-23T01:46:51.462Z,1008.63
2022-12-23T01:47:23.074Z,1008.63
2022-12-23T01:47:55.341Z,1008.63
2022-12-23T01:48:30.576Z,1008.53
2022-12-23T01:48:52.678Z,1008.43
2022-12-23T01:49:15.579Z,1008.43
2022-12-23T01:49:51.332Z,1008.74
2022-12-23T01:50:13.986Z,1008.74
2022-12-23T01:50:52.048Z,1008.74
2022-12-23T01:51:22.913Z,1008.53
2022-12-23T01:51:55.295Z,1008.53
2022-12-23T01:52:27.195Z,1008.53
2022-12-23T01:52:49.907Z,1008.43
2022-12-23T01:53:12.230Z,1008.43
2022-12-23T01:53:47.250Z,1008.43
2022-12-23T01:54:19.383Z,1008.74
2022-12-23T01:54:51.400Z,1008.74
2022-12-23T01:55:22.817Z,1008.43
2022-12-23T01:55:55.261Z,1008.43
2022-12-23T01:56:27.382Z,1008.33
2022-12-23T01:56:50.850Z,1008.74
2022-12-23T01:57:13.068Z,1008.74
2022-12-23T01:57:47.610Z,1008.74
2022-12-23T01:58:19.565Z,1008.63
2022-12-23T01:58:51.207Z,1008.63
2022-12-23T01:59:22.830Z,1008.43
2022-12-23T01:59:55.350Z,1008.43
2022-12-23T02:00:56.541Z,1008.53
2022-12-23T02:01:13.458Z,1008.53
2022-12-23T02:01:47.363Z,1008.53
2022-12-23T02:02:19.637Z,1008.53
2022-12-23T02:02:51.565Z,1008.53
2022-12-23T02:03:23.162Z,1008.43
2022-12-23T02:03:55.235Z,1008.43
2022-12-23T02:04:27.833Z,1008.53
2022-12-23T02:04:53.143Z,1008.63
2022-12-23T02:05:31.536Z,1008.63
2022-12-23T02:05:54.100Z,1008.84
2022-12-23T02:06:16.490Z,1008.84
2022-12-23T02:06:51.377Z,1008.84
2022-12-23T02:07:25.058Z,1008.43
2022-12-23T02:07:57.264Z,1008.74
2022-12-23T02:08:27.145Z,1008.74
2022-12-23T02:08:49.953Z,1008.63
2022-12-23T02:09:12.494Z,1008.63
2022-12-23T02:09:47.531Z,1008.63
2022-12-23T02:10:19.098Z,1008.74
2022-12-23T02:10:52.785Z,1008.74
2022-12-23T02:11:22.878Z,1008.63
2022-12-23T02:11:55.387Z,1008.63
2022-12-23T02:12:27.136Z,1008.43
2022-12-23T02:12:50.457Z,1008.63
2022-12-23T02:13:13.014Z,1008.63
2022-12-23T02:13:47.438Z,1008.63
2022-12-23T02:14:19.290Z,1008.74
2022-12-23T02:14:52.685Z,1008.74
2022-12-23T02:15:23.309Z,1008.63
2022-12-23T02:15:55.282Z,1008.63
2022-12-23T02:16:27.474Z,1008.43
2022-12-23T02:16:50.887Z,1008.63
2022-12-23T02:17:13.267Z,1008.63
2022-12-23T02:17:47.160Z,1008.63
2022-12-23T02:18:19.358Z,1008.63
2022-12-23T02:18:51.134Z,1008.63
2022-12-23T02:19:23.142Z,1008.74
2022-12-23T02:19:55.230Z,1008.74
2022-12-23T02:20:27.351Z,1008.74
2022-12-23T02:20:50.041Z,1008.74
2022-12-23T02:21:12.470Z,1008.74
2022-12-23T02:21:47.350Z,1008.74
2022-12-23T02:22:20.636Z,1008.63
2022-12-23T02:22:51.325Z,1008.63
2022-12-23T02:23:22.950Z,1008.63
2022-12-23T02:23:55.353Z,1008.63
2022-12-23T02:24:27.313Z,1008.74
2022-12-23T02:24:50.148Z,1008.74
2022-12-23T02:25:12.430Z,1008.74
2022-12-23T02:25:47.270Z,1008.74
2022-12-23T02:26:19.206Z,1008.74
2022-12-23T02:26:51.269Z,1008.74
2022-12-23T02:27:23.086Z,1008.74
2022-12-23T02:27:55.626Z,1008.74
2022-12-23T02:28:27.979Z,1008.74
2022-12-23T02:28:50.064Z,1008.84
2022-12-23T02:29:12.488Z,1008.84
2022-12-23T02:29:48.342Z,1008.84
2022-12-23T02:30:19.746Z,1008.74
2022-12-23T02:30:51.277Z,1008.74
2022-12-23T02:31:22.838Z,1008.84
2022-12-23T02:31:55.109Z,1008.84
2022-12-23T02:32:27.339Z,1008.74
2022-12-23T02:32:50.203Z,1008.74
2022-12-23T02:33:12.442Z,1008.74
2022-12-23T02:33:47.156Z,1008.74
2022-12-23T02:34:19.349Z,1008.53
2022-12-23T02:34:51.220Z,1008.53
2022-12-23T02:35:23.012Z,1008.53
2022-12-23T02:35:55.284Z,1008.53
2022-12-23T02:36:43.434Z,1008.53
2022-12-23T02:37:15.716Z,1008.43
2022-12-23T02:37:47.358Z,1008.43
2022-12-23T02:38:19.138Z,1008.63
2022-12-23T02:38:51.526Z,1008.63
2022-12-23T02:39:22.850Z,1008.74
2022-12-23T02:39:55.234Z,1008.74
2022-12-23T02:40:27.380Z,1008.84
2022-12-23T02:40:50.066Z,1008.63
2022-12-23T02:41:12.427Z,1008.63
2022-12-23T02:41:47.268Z,1008.63
2022-12-23T02:42:19.312Z,1008.74
2022-12-23T02:42:51.300Z,1008.74
2022-12-23T02:43:23.195Z,1008.74
2022-12-23T02:43:55.134Z,1008.74
2022-12-23T02:44:27.126Z,1008.74
2022-12-23T02:44:49.887Z,1008.84
2022-12-23T02:45:12.226Z,1008.84
2022-12-23T02:45:47.480Z,1008.84
2022-12-23T02:46:19.372Z,1008.74
2022-12-23T02:46:51.353Z,1008.74
2022-12-23T02:47:39.946Z,1008.63
2022-12-23T02:48:02.327Z,1008.74
2022-12-23T02:48:24.676Z,1008.74
2022-12-23T02:48:55.954Z,1008.74
2022-12-23T02:49:31.448Z,1008.74
2022-12-23T02:49:54.246Z,1008.74
2022-12-23T02:50:16.997Z,1008.74
2022-12-23T02:50:51.163Z,1008.74
2022-12-23T02:51:22.896Z,1008.74
2022-12-23T02:51:55.713Z,1008.74
2022-12-23T02:52:27.381Z,1008.53
2022-12-23T02:52:51.556Z,1008.74
2022-12-23T02:53:13.866Z,1008.74
2022-12-23T02:53:47.264Z,1008.74
2022-12-23T02:54:19.120Z,1008.74
2022-12-23T02:54:51.625Z,1008.74
2022-12-23T02:55:23.537Z,1008.74
2022-12-23T02:55:55.074Z,1008.74
2022-12-23T02:56:27.401Z,1008.74
2022-12-23T02:56:50.324Z,1008.84
2022-12-23T02:57:12.617Z,1008.84
2022-12-23T02:57:47.570Z,1008.84
2022-12-23T02:58:19.319Z,1008.84
2022-12-23T02:58:51.629Z,1008.84
2022-12-23T02:59:22.939Z,1008.63
2022-12-23T02:59:55.455Z,1008.63
2022-12-23T03:00:24.246Z,1008.63
2022-12-23T03:00:54.579Z,1008.84
2022-12-23T03:01:38.684Z,1008.84
2022-12-23T03:02:01.817Z,1008.74
2022-12-23T03:02:17.431Z,1008.74
2022-12-23T03:02:52.824Z,1008.74
2022-12-23T03:03:23.136Z,1008.94
2022-12-23T03:03:55.502Z,1008.94
2022-12-23T03:04:31.054Z,1008.84
2022-12-23T03:04:55.514Z,1009.04
2022-12-23T03:05:13.706Z,1009.04
2022-12-23T03:05:47.670Z,1009.04
2022-12-23T03:06:22.123Z,1009.04
2022-12-23T03:06:52.048Z,1009.04
2022-12-23T03:07:26.105Z,1008.84
2022-12-23T03:08:04.128Z,1008.94
2022-12-23T03:08:26.565Z,1008.94
2022-12-23T03:08:49.610Z,1008.84
2022-12-23T03:09:12.001Z,1008.84
2022-12-23T03:09:47.421Z,1008.84
2022-12-23T03:10:19.285Z,1008.94
2022-12-23T03:10:51.277Z,1008.94
2022-12-23T03:11:22.846Z,1009.04
2022-12-23T03:11:49.444Z,1009.04
2022-12-23T03:12:23.578Z,1009.04
2022-12-23T03:12:54.844Z,1008.94
2022-12-23T03:13:31.637Z,1008.94
2022-12-23T03:13:54.145Z,1008.94
2022-12-23T03:14:17.302Z,1008.94
2022-12-23T03:14:55.734Z,1008.94
2022-12-23T03:15:39.674Z,1008.94
2022-12-23T03:16:01.858Z,1008.94
2022-12-23T03:16:26.630Z,1008.94
2022-12-23T03:16:54.641Z,1009.11
2022-12-23T03:17:32.123Z,1009.11
2022-12-23T03:17:54.488Z,1008.84
2022-12-23T03:18:16.871Z,1008.84
2022-12-23T03:18:51.360Z,1008.84
2022-12-23T03:19:29.752Z,1009.04
2022-12-23T03:19:52.229Z,1009.04
2022-12-23T03:20:22.980Z,1008.94
2022-12-23T03:20:54.627Z,1008.94
2022-12-23T03:21:31.390Z,1008.94
2022-12-23T03:21:53.966Z,1008.84
2022-12-23T03:22:16.239Z,1008.84
2022-12-23T03:22:51.240Z,1008.84
2022-12-23T03:23:22.965Z,1009.11
2022-12-23T03:23:55.899Z,1009.11
2022-12-23T03:24:27.275Z,1009.11
2022-12-23T03:24:50.811Z,1009.11
2022-12-23T03:25:13.233Z,1009.11
2022-12-23T03:25:47.691Z,1009.11
2022-12-23T03:26:19.198Z,1009.04
2022-12-23T03:26:51.335Z,1009.04
2022-12-23T03:27:22.963Z,1009.04
2022-12-23T03:27:55.429Z,1009.04
2022-12-23T03:28:27.041Z,1009.21
2022-12-23T03:28:50.205Z,1009.21
2022-12-23T03:29:12.773Z,1009.21
2022-12-23T03:29:48.273Z,1009.21
2022-12-23T03:30:19.215Z,1009.31
2022-12-23T03:30:51.294Z,1009.31
2022-12-23T03:31:23.004Z,1009.11
2022-12-23T03:31:55.194Z,1009.11
2022-12-23T03:32:27.323Z,1009.11
2022-12-23T03:32:50.616Z,1009.11
2022-12-23T03:33:12.860Z,1009.11
2022-12-23T03:33:47.161Z,1009.11
2022-12-23T03:34:19.258Z,1009.21
2022-12-23T03:34:51.190Z,1009.21
2022-12-23T03:35:22.949Z,1009.31
2022-12-23T03:35:55.091Z,1009.31
2022-12-23T03:36:27.448Z,1009.31
2022-12-23T03:36:51.395Z,1009.04
2022-12-23T03:37:13.929Z,1009.04
2022-12-23T03:37:47.087Z,1009.04
2022-12-23T03:38:19.160Z,1009.21
2022-12-23T03:38:51.232Z,1009.21
2022-12-23T03:39:22.928Z,1009.11
2022-12-23T03:39:55.095Z,1009.11
2022-12-23T03:40:27.190Z,1009.21
2022-12-23T03:40:50.469Z,1009.21
2022-12-23T03:41:12.995Z,1009.21
2022-12-23T03:41:47.187Z,1009.21
2022-12-23T03:42:19.305Z,1009.04
2022-12-23T03:42:51.457Z,1009.04
2022-12-23T03:43:22.919Z,1009.11
2022-12-23T03:43:55.249Z,1009.11
2022-12-23T03:44:27.094Z,1009.21
2022-12-23T03:45:19.080Z,1009.31
2022-12-23T03:45:47.803Z,1009.31
2022-12-23T03:46:19.691Z,1009.11
2022-12-23T03:46:51.413Z,1009.11
2022-12-23T03:47:24.114Z,1009.04
2022-12-23T03:47:56.435Z,1009.04
2022-12-23T03:48:28.509Z,1009.04
2022-12-23T03:48:50.608Z,1009.21
2022-12-23T03:49:13.331Z,1009.21
2022-12-23T03:49:47.437Z,1009.21
2022-12-23T03:50:19.309Z,1009.21
2022-12-23T03:50:51.551Z,1009.21
2022-12-23T03:51:23.204Z,1009.21
2022-12-23T03:51:55.916Z,1009.21
2022-12-23T03:52:27.306Z,1009.41
2022-12-23T03:52:50.979Z,1009.21
2022-12-23T03:53:13.352Z,1009.21
2022-12-23T03:53:48.164Z,1009.21
2022-12-23T03:54:20.019Z,1009.21
2022-12-23T03:54:51.178Z,1009.21
2022-12-23T03:55:23.602Z,1009.21
2022-12-23T03:55:55.659Z,1009.21
2022-12-23T03:56:28.082Z,1009.31
2022-12-23T03:56:50.686Z,1009.11
2022-12-23T03:57:13.576Z,1009.11
2022-12-23T03:57:55.463Z,1009.41
2022-12-23T03:58:18.160Z,1009.41
2022-12-23T03:58:52.495Z,1009.41
2022-12-23T03:59:23.537Z,1009.41
2022-12-23T03:59:55.899Z,1009.41
2022-12-23T04:00:27.530Z,1009.41
2022-12-23T04:00:49.816Z,1009.41
2022-12-23T04:01:12.663Z,1009.41
2022-12-23T04:01:47.953Z,1009.41
2022-12-23T04:02:21.511Z,1009.51
2022-12-23T04:02:51.567Z,1009.51
2022-12-23T04:03:24.232Z,1009.41
2022-12-23T04:03:56.018Z,1009.41
2022-12-23T04:04:28.012Z,1009.51
2022-12-23T04:04:50.486Z,1009.41
2022-12-23T04:05:13.037Z,1009.41
2022-12-23T04:05:48.346Z,1009.41
2022-12-23T04:06:19.191Z,1009.51
2022-12-23T04:06:51.264Z,1009.51
2022-12-23T04:07:23.820Z,1009.41
2022-12-23T04:07:56.391Z,1009.41
2022-12-23T04:08:27.217Z,1009.31
2022-12-23T04:08:49.883Z,1009.51
2022-12-23T04:09:16.631Z,1009.51
2022-12-23T04:09:47.393Z,1009.51
2022-12-23T04:10:21.175Z,1009.51
2022-12-23T04:10:51.623Z,1009.51
2022-12-23T04:11:23.273Z,1009.41
2022-12-23T04:11:55.940Z,1009.41
2022-12-23T04:12:27.313Z,1009.62
2022-12-23T04:12:50.094Z,1009.41
2022-12-23T04:13:12.493Z,1009.41
2022-12-23T04:13:47.196Z,1009.41
2022-12-23T04:14:19.581Z,1009.31
2022-12-23T04:14:53.115Z,1009.31
2022-12-23T04:15:23.364Z,1009.51
2022-12-23T04:15:55.760Z,1009.51
2022-12-23T04:16:27.212Z,1009.62
2022-12-23T04:16:49.826Z,1009.62
2022-12-23T04:17:13.453Z,1009.62
2022-12-23T04:17:50.761Z,1009.31
2022-12-23T04:18:13.444Z,1009.31
2022-12-23T04:18:51.529Z,1009.31
2022-12-23T04:19:22.999Z,1009.51
2022-12-23T04:19:55.241Z,1009.51
2022-12-23T04:20:27.113Z,1009.62
2022-12-23T04:20:52.194Z,1009.62
2022-12-23T04:21:13.156Z,1009.62
2022-12-23T04:21:47.110Z,1009.62
2022-12-23T04:22:19.284Z,1009.62
2022-12-23T04:22:51.315Z,1009.62
2022-12-23T04:23:23.416Z,1009.41
2022-12-23T04:23:55.084Z,1009.41
2022-12-23T04:24:27.148Z,1009.51
2022-12-23T04:24:49.764Z,1009.51
2022-12-23T04:25:12.287Z,1009.51
2022-12-23T04:25:47.179Z,1009.51
2022-12-23T04:26:19.209Z,1009.82
2022-12-23T04:26:53.552Z,1009.82
2022-12-23T04:27:23.231Z,1009.51
2022-12-23T04:27:55.307Z,1009.51
2022-12-23T04:28:27.830Z,1009.62
2022-12-23T04:28:50.374Z,1009.72
2022-12-23T04:29:12.667Z,1009.72
2022-12-23T04:29:47.067Z,1009.72
2022-12-23T04:30:19.184Z,1009.62
2022-12-23T04:30:51.156Z,1009.62
2022-12-23T04:31:22.994Z,1009.62
2022-12-23T04:31:55.343Z,1009.62
2022-12-23T04:32:27.132Z,1009.62
2022-12-23T04:32:50.706Z,1009.72
2022-12-23T04:33:12.530Z,1009.72
2022-12-23T04:33:47.196Z,1009.72
2022-12-23T04:34:19.205Z,1009.51
2022-12-23T04:34:51.172Z,1009.51
2022-12-23T04:35:22.852Z,1009.92
2022-12-23T04:35:55.061Z,1009.92
2022-12-23T04:36:27.204Z,1009.62
2022-12-23T04:36:50.491Z,1009.72
2022-12-23T04:37:13.158Z,1009.72
2022-12-23T04:37:48.614Z,1009.72
2022-12-23T04:38:19.893Z,1009.82
2022-12-23T04:38:51.236Z,1009.82
2022-12-23T04:39:22.970Z,1009.82
2022-12-23T04:39:55.119Z,1009.82
2022-12-23T04:40:27.231Z,1009.72
2022-12-23T04:40:50.201Z,1009.62
2022-12-23T04:41:12.635Z,1009.62
2022-12-23T04:41:47.318Z,1009.62
2022-12-23T04:42:20.256Z,1009.51
2022-12-23T04:42:55.623Z,1009.51
2022-12-23T04:43:23.384Z,1009.82
2022-12-23T04:43:55.132Z,1009.82
2022-12-23T04:44:27.170Z,1009.82
2022-12-23T04:44:49.937Z,1009.72
2022-12-23T04:45:12.477Z,1009.72
2022-12-23T04:45:47.144Z,1009.72
2022-12-23T04:46:19.098Z,1009.72
2022-12-23T04:46:51.447Z,1009.72
2022-12-23T04:47:18.282Z,1009.51
2022-12-23T04:47:55.591Z,1009.51
2022-12-23T04:48:27.702Z,1009.82
2022-12-23T04:48:50.388Z,1009.82
2022-12-23T04:49:12.821Z,1009.82
2022-12-23T04:49:47.471Z,1009.82
2022-12-23T04:50:19.168Z,1009.72
2022-12-23T04:50:51.416Z,1009.72
2022-12-23T04:51:23.108Z,1009.82
2022-12-23T04:51:56.312Z,1009.82
2022-12-23T04:52:27.171Z,1009.72
2022-12-23T04:52:50.067Z,1009.62
2022-12-23T04:53:13.011Z,1009.62
2022-12-23T04:53:48.432Z,1009.62
2022-12-23T04:54:20.310Z,1009.62
2022-12-23T04:54:51.616Z,1009.62
2022-12-23T04:55:24.118Z,1009.62
2022-12-23T04:55:55.950Z,1009.62
2022-12-23T04:56:27.307Z,1009.82
2022-12-23T04:56:50.347Z,1009.92
2022-12-23T04:57:13.546Z,1009.92
2022-12-23T04:57:49.253Z,1009.82
2022-12-23T04:58:20.892Z,1009.82
2022-12-23T04:58:52.709Z,1009.82
2022-12-23T04:59:23.171Z,1009.82
2022-12-23T04:59:55.474Z,1009.82
2022-12-23T05:00:27.234Z,1009.72
2022-12-23T05:00:50.177Z,1009.72
2022-12-23T05:01:12.708Z,1009.72
2022-12-23T05:01:47.432Z,1009.72
2022-12-23T05:02:21.435Z,1009.82
2022-12-23T05:02:51.353Z,1009.82
2022-12-23T05:03:23.249Z,1009.62
2022-12-23T05:03:57.397Z,1009.72
2022-12-23T05:04:27.517Z,1009.72
2022-12-23T05:04:50.159Z,1009.82
2022-12-23T05:05:13.192Z,1009.82
2022-12-23T05:05:48.137Z,1009.82
2022-12-23T05:06:19.342Z,1009.92
2022-12-23T05:06:52.169Z,1009.92
2022-12-23T05:07:24.420Z,1009.72
2022-12-23T05:07:56.097Z,1009.72
2022-12-23T05:08:27.231Z,1009.92
2022-12-23T05:08:49.677Z,1009.82
2022-12-23T05:09:12.284Z,1009.82
2022-12-23T05:09:47.318Z,1009.82
2022-12-23T05:10:19.336Z,1009.82
2022-12-23T05:10:51.308Z,1009.82
2022-12-23T05:11:23.791Z,1009.82
2022-12-23T05:11:55.970Z,1009.82
2022-12-23T05:12:27.514Z,1009.82
2022-12-23T05:12:50.714Z,1009.82
2022-12-23T05:13:12.568Z,1009.82
2022-12-23T05:13:47.348Z,1009.82
2022-12-23T05:14:19.272Z,1009.82
2022-12-23T05:14:52.807Z,1009.92
2022-12-23T05:15:23.266Z,1009.92
2022-12-23T05:15:56.074Z,1009.92
2022-12-23T05:16:27.535Z,1009.82
2022-12-23T05:16:50.194Z,1009.82
2022-12-23T05:17:13.213Z,1009.82
2022-12-23T05:17:47.546Z,1009.82
2022-12-23T05:18:25.852Z,1009.92
2022-12-23T05:18:48.254Z,1009.92
2022-12-23T05:19:23.411Z,1009.92
2022-12-23T05:19:55.185Z,1009.92
2022-12-23T05:20:27.131Z,1010.02
2022-12-23T05:20:51.004Z,1009.82
2022-12-23T05:21:13.229Z,1009.82
2022-12-23T05:21:47.234Z,1009.82
2022-12-23T05:22:19.213Z,1010.02
2022-12-23T05:22:51.299Z,1010.02
2022-12-23T05:23:22.854Z,1009.92
2022-12-23T05:23:55.132Z,1009.92
2022-12-23T05:24:27.152Z,1009.92
2022-12-23T05:24:49.919Z,1010.12
2022-12-23T05:25:12.362Z,1010.12
2022-12-23T05:25:47.325Z,1010.12
2022-12-23T05:26:19.171Z,1010.12
2022-12-23T05:26:57.716Z,1010.12
2022-12-23T05:27:22.966Z,1010.02
2022-12-23T05:27:55.022Z,1010.02
2022-12-23T05:28:27.523Z,1010.02
2022-12-23T05:28:50.601Z,1010.02
2022-12-23T05:29:12.928Z,1010.02
2022-12-23T05:29:47.118Z,1010.02
2022-12-23T05:30:19.156Z,1010.02
2022-12-23T05:30:52.595Z,1010.02
2022-12-23T05:31:23.324Z,1010.12
2022-12-23T05:31:55.253Z,1010.12
2022-12-23T05:32:27.087Z,1010.23
2022-12-23T05:32:50.668Z,1010.12
2022-12-23T05:33:12.989Z,1010.12
2022-12-23T05:33:47.226Z,1010.12
2022-12-23T05:34:18.961Z,1009.92
2022-12-23T05:34:51.131Z,1009.92
2022-12-23T05:35:22.906Z,1010.02
2022-12-23T05:35:56.013Z,1010.02
2022-12-23T05:36:27.148Z,1010.12
2022-12-23T05:36:51.262Z,1010.23
2022-12-23T05:37:13.667Z,1010.23
2022-12-23T05:37:47.106Z,1010.23
2022-12-23T05:38:19.621Z,1010.02
2022-12-23T05:38:48.244Z,1010.02
2022-12-23T05:39:24.678Z,1009.92
2022-12-23T05:39:55.146Z,1009.92
2022-12-23T05:40:30.417Z,1009.92
2022-12-23T05:40:51.125Z,1010.02
2022-12-23T05:41:13.941Z,1010.02
2022-12-23T05:41:47.671Z,1010.02
2022-12-23T05:42:19.331Z,1010.02
2022-12-23T05:42:51.921Z,1010.02
2022-12-23T05:43:22.922Z,1009.92
2022-12-23T05:43:55.585Z,1009.92
2022-12-23T05:44:27.272Z,1010.12
2022-12-23T05:44:49.826Z,1010.02
2022-12-23T05:45:12.387Z,1010.02
2022-12-23T05:45:47.793Z,1010.02
2022-12-23T05:46:24.324Z,1010.12
2022-12-23T05:46:51.607Z,1010.12
2022-12-23T05:47:23.273Z,1009.92
2022-12-23T05:47:56.610Z,1009.92
2022-12-23T05:48:29.247Z,1010.12
2022-12-23T05:48:51.880Z,1010.02
2022-12-23T05:49:16.503Z,1010.02
2022-12-23T05:49:48.226Z,1010.02
2022-12-23T05:50:20.559Z,1010.02
2022-12-23T05:50:51.198Z,1010.02
2022-12-23T05:51:22.990Z,1010.02
2022-12-23T05:51:55.914Z,1010.02
2022-12-23T05:52:27.611Z,1010.02
2022-12-23T05:52:51.427Z,1009.92
2022-12-23T05:53:19.185Z,1009.92
2022-12-23T05:53:47.532Z,1009.92
2022-12-23T05:54:19.891Z,1010.02
2022-12-23T05:54:51.405Z,1010.02
2022-12-23T05:55:23.257Z,1009.92
2022-12-23T05:55:55.453Z,1009.92
2022-12-23T05:56:27.517Z,1010.23
2022-12-23T05:56:50.093Z,1009.92
2022-12-23T05:57:13.118Z,1009.92
2022-12-23T05:57:49.886Z,1010.02
2022-12-23T05:58:25.675Z,1010.02
2022-12-23T05:58:47.969Z,1010.02
2022-12-23T05:59:30.992Z,1010.02
2022-12-23T05:59:57.191Z,1010.02
2022-12-23T06:00:27.203Z,1010.02
2022-12-23T06:00:51.840Z,1010.12
2022-12-23T06:01:20.906Z,1010.12
2022-12-23T06:01:53.408Z,1010.12
2022-12-23T06:02:19.525Z,1010.12
2022-12-23T06:02:54.229Z,1010.12
2022-12-23T06:04:11.412Z,1010.12
2022-12-23T06:04:44.545Z,1010.12
2022-12-23T06:05:15.129Z,1010.33